Cherry Lane, North Carolina
Current Conditions -  °F | °C
As of 3:35 AM on Monday 22 Dec 2014 (Local Time) from KUKF Reporting Station
Overcast Overcast  
Wind Chill: 33°   Ceiling: 2300
Heat Index: 37°   Visibility: 10mi
Dew Point: 32°   Wind: 6mph
Humidity: 81%   Direction: 80°E
Pressure: 30.22"   Gusts: NA
Location:  36.4437°N, 81.0178°W
Report Text: KUKF 220835Z AUTO 08005KT 10SM OVC023 03/00 A3022 RMK AO2
Loading
Personal Weather Stations






























Interactive Weather Map New forecast layout! Learn more

10-Day Weather Forecast

Advertisements
Track Severe Weather on mobile